Accueil
METAR-TAF:

METAR-TAF

Aéroports :

Aéroport international Saint-Gall-Altenrhein

Saint-Gall, Suisse

latitude: 47-29-06N, longitude: 009-33-43E, altitude: 398 m

Observation

Le bulletin a été fait il y a 37 minutes, à 22:20 UTC
Vent 2 kt de direction variable
Température 13°C
Humidité 62%
Pression 1003 hPa
Visibilité 10 km ou plus
Quelques nuages à une hauteur de 7500 ft
Ciel couvert à une hauteur de 8500 ft

METAR: LSZR 262220Z AUTO VRB02KT 9999 FEW075 OVC085 13/06 Q1003

Heure: 00:57 (22:57 UTC)

Prévision

Le bulletin a été fait il y a 8 heures et 32 minutes, à 14:25 UTC
Prévision valable du 26 à 15 UTC au 26 à 24 UTC
Vent 3 kt de direction variable
Visibilité 10 km ou plus
Nuages épars à une hauteur de 4500 ft
Nuages fragmentés à une hauteur de 8000 ft

TAF: LSZR 261425Z 2615/2624 VRB03KT 9999 SCT045 BKN080

Observations et prévisions météorologiques de plus de 4000 aéroports (messages METAR et TAF).

Les stations disponibles sont représentées par des disques jaunes et rouges sur la carte.

Passer la souris dessus pour voir le nom de la station.

Cliquer dessus pour voir les observations et prévisions météorologiques.

Pour changer de carte: cliquez sur les boutons verts avec une croix noire pour zoomer, sur le bouton vert avec un tiret pour effectuer un zoom arrière, ou sur les flèches vertes pour les cartes adjacentes.


METAR-TAF: